Nearby METAR Reports

 

KIMT - Iron Mountain, Michigan, USA
Distance from station: 0 29mi, 47km
Updated: Thu, 09-Apr-2020 5:54pm CDT
Overcast
Overcast
 Wind from NNW
Wind: NNW 23 mph , 37 km/h, Gust: 35 mph , 56 km/h
Temperature: 36°F , 2°C
Wind Chill: 24°F , -4°C
Dew Point: 21°F , -6°C
Humidity: 56%
Barometer: 29.71 inHg , 1006.1 hPa
Clouds: Overcast
Visibility: 10 miles , 16 km
Cloud details: Mostly cloudy 4300 ft
Overcast 5000 ft
2020/04/09 22:54 KIMT 092254Z AUTO 33020G30KT 10SM BKN043 OVC050 02/M06 A2971 RMK AO2 PK WND 30030/2207 SLP074 T00221061
KMNM - Menominee, Michigan, USA
Distance from station: SE 31mi, 51km
Updated: Thu, 09-Apr-2020 5:56pm CDT
Overcast
Overcast
 Wind from NNW
Wind: NNW 16 mph , 26 km/h, Gust: 28 mph , 44 km/h
Temperature: 39°F , 4°C
Wind Chill: 30°F , -1°C
Dew Point: 19°F , -7°C
Humidity: 45%
Barometer: 29.72 inHg , 1006.4 hPa
Clouds: Overcast
Visibility: 10 miles , 16 km
Cloud details: Mostly cloudy 6000 ft
Overcast 7000 ft
2020/04/09 22:56 KMNM 092256Z AUTO 34014G24KT 10SM BKN060 OVC070 04/M07 A2972 RMK AO2 PK WND 34027/2229 SLP066 T00441067 $
 
KOCQ - Oconto, Wisconsin, USA
Distance from station: SSE 38mi, 61km
Updated: Thu, 09-Apr-2020 5:55pm CDT
Mostly cloudy
Mostly cloudy
 Wind from NNW
Wind: NNW 15 mph , 24 km/h, Gust: 23 mph , 37 km/h
Temperature: 41°F , 5°C
Wind Chill: 33°F , 1°C
Dew Point: 18°F , -8°C
Humidity: 39%
Barometer: 29.72 inHg , 1006.4 hPa
Clouds: Mostly cloudy
Visibility: 10 miles , 16 km
Cloud details: Partly cloudy 5000 ft
Partly cloudy 8000 ft
Mostly cloudy 8500 ft
2020/04/09 22:55 KOCQ 092255Z AUTO 34013G20KT 10SM SCT050 SCT080 BKN085 05/M08 A2972 RMK AO1 T00521077
KEZS - Shawano Muni, Wisconsin, USA
Distance from station: SSW 48mi, 77km
Updated: Thu, 09-Apr-2020 5:55pm CDT
Partly cloudy
Partly cloudy
 Wind from NW
Wind: NW 14 mph , 22 km/h, Gust: 24 mph , 39 km/h
Temperature: 43°F , 6°C
Wind Chill: 36°F , 2°C
Dew Point: 16°F , -9°C
Humidity: 34%
Barometer: 29.75 inHg , 1007.5 hPa
Clouds: Partly cloudy
Visibility: 10 miles , 16 km
Cloud details: Partly cloudy 6500 ft
Partly cloudy 7500 ft
2020/04/09 22:55 KEZS 092255Z AUTO 32012G21KT 10SM SCT065 SCT075 06/M09 A2975 RMK AO2 T00591087
 
KAIG - Antigo/Langlade, Wisconsin, USA
Distance from station: WSW 51mi, 82km
Updated: Thu, 09-Apr-2020 5:55pm CDT
Overcast
Overcast
 Wind from NW
Wind: NW 17 mph , 28 km/h, Gust: 24 mph , 39 km/h
Temperature: 36°F , 2°C
Wind Chill: 26°F , -3°C
Dew Point: 18°F , -8°C
Humidity: 48%
Barometer: 29.76 inHg , 1007.8 hPa
Clouds: Overcast
Visibility: 10 miles , 16 km
Cloud details: Mostly cloudy 6000 ft
Overcast 7000 ft
2020/04/09 22:55 KAIG 092255Z AUTO 32015G21KT 10SM BKN060 OVC070 02/M08 A2976 RMK AO2 T00191085
KSUE - Sturgeon Bay, Wisconsin, USA
Distance from station: SE 51mi, 82km
Updated: Thu, 09-Apr-2020 5:56pm CDT
Overcast
Overcast
 Wind from NW
Wind: NW 16 mph , 26 km/h, Gust: 23 mph , 37 km/h
Temperature: 43°F , 6°C
Wind Chill: 35°F , 2°C
Dew Point: 21°F , -6°C
Humidity: 42%
Clouds: Overcast
Visibility: 10 miles , 16 km
Cloud details: Partly cloudy 7500 ft
Overcast 10000 ft
2020/04/09 22:56 KSUE 092256Z AUTO 31014G20KT 10SM SCT075 OVC100 06/M06 RMK AO2 PK WND 34027/2225 SLPNO T00561056 $
 
KESC - Escanaba, Michigan, USA
Distance from station: ENE 56mi, 90km
Updated: Thu, 09-Apr-2020 5:56pm CDT
Overcast
Overcast
 Wind from NNW
Wind: NNW 20 mph , 31 km/h, Gust: 28 mph , 44 km/h
Temperature: 37°F , 3°C
Wind Chill: 27°F , -3°C
Dew Point: 25°F , -4°C
Humidity: 60%
Barometer: 29.68 inHg , 1005.1 hPa
Clouds: Overcast
Visibility: 10 miles , 16 km
Cloud details: Partly cloudy 4300 ft
Mostly cloudy 5000 ft
Overcast 6500 ft
2020/04/09 22:56 KESC 092256Z AUTO 33017G24KT 10SM SCT043 BKN050 OVC065 03/M04 A2968 RMK AO2 PK WND 31026/2236 SLP060 T00331044
KCLI - Clintonville, Wisconsin, USA
Distance from station: SSW 62mi, 99km
Updated: Thu, 09-Apr-2020 5:55pm CDT
Mostly cloudy
Mostly cloudy
 Wind from NNW
Wind: NNW 18 mph , 30 km/h, Gust: 26 mph , 43 km/h
Temperature: 43°F , 6°C
Wind Chill: 35°F , 2°C
Dew Point: 10°F , -12°C
Humidity: 26%
Barometer: 29.76 inHg , 1007.8 hPa
Clouds: Mostly cloudy
Visibility: 10 miles , 16 km
Cloud details: Mostly cloudy 7000 ft
2020/04/09 22:55 KCLI 092255Z AUTO 33016G23KT 10SM BKN070 06/M12 A2976 RMK AO2 T00551118
 
KGRB - Ashwaubenon, Wisconsin, USA
Distance from station: S 63mi, 102km
Updated: Thu, 09-Apr-2020 5:53pm CDT
Clear
Clear
 Wind from NW
Wind: NW 17 mph , 28 km/h, Gust: 32 mph , 52 km/h
Temperature: 43°F , 6°C
Wind Chill: 35°F , 2°C
Dew Point: 18°F , -8°C
Humidity: 36%
Barometer: 29.73 inHg , 1006.8 hPa
Clouds: Clear
Visibility: 10 miles , 16 km
2020/04/09 22:53 KGRB 092253Z 32015G28KT 10SM CLR 06/M08 A2973 RMK AO2 PK WND 33029/2203 SLP073 T00561083
KEGV - Eagle River, Wisconsin, USA
Distance from station: NW 66mi, 107km
Updated: Thu, 09-Apr-2020 5:55pm CDT
Mostly cloudy
Mostly cloudy
 Wind from NW
Wind: NW 15 mph , 24 km/h, Gust: 29 mph , 46 km/h
Temperature: 34°F , 1°C
Wind Chill: 24°F , -4°C
Dew Point: 21°F , -6°C
Humidity: 60%
Barometer: 29.77 inHg , 1008.1 hPa
Clouds: Mostly cloudy
Visibility: 10 miles , 16 km
Cloud details: Partly cloudy 2900 ft
Mostly cloudy 4000 ft
2020/04/09 22:55 KEGV 092255Z AUTO 32013G25KT 10SM SCT029 BKN040 01/M06 A2977 RMK AO2 T00101061
 
KRHI - Rhinelander, Wisconsin, USA
Distance from station: WNW 68mi, 109km
Updated: Thu, 09-Apr-2020 5:53pm CDT
Overcast
Overcast
 Wind from NW
Wind: NW 12 mph , 19 km/h, Gust: 28 mph , 44 km/h
Temperature: 34°F , 1°C
Wind Chill: 25°F , -4°C
Dew Point: 18°F , -8°C
Humidity: 51%
Barometer: 29.78 inHg , 1008.5 hPa
Clouds: Overcast
Visibility: 10 miles , 16 km
Cloud details: Mostly cloudy 5000 ft
Overcast 6000 ft
2020/04/09 22:53 KRHI 092253Z AUTO 32010G24KT 10SM BKN050 OVC060 01/M08 A2978 RMK AO2 PK WND 32028/2200 SLP102 T00111083
KLNL - Land O Lakes, Wisconsin, USA
Distance from station: NW 74mi, 119km
Updated: Thu, 09-Apr-2020 5:55pm CDT
Light snow, Overcast
Light snow, Overcast
 Wind from NW
Wind: NW 13 mph , 20 km/h, Gust: 21 mph , 33 km/h
Temperature: 32°F , 0°C
Wind Chill: 22°F , -6°C
Dew Point: 25°F , -4°C
Humidity: 75%
Barometer: 29.78 inHg , 1008.5 hPa
Summary: Light Snow
Clouds: Overcast
Visibility: 3 miles , 5 km
Cloud details: Partly cloudy 1100 ft
Mostly cloudy 1800 ft
Overcast 3800 ft
2020/04/09 22:55 KLNL 092255Z AUTO 32011G18KT 3SM -SN SCT011 BKN018 OVC038 00/M04 A2978 RMK AO2 T00001038
 
KSAW - Gwinn/Sawyer, Michigan, USA
Distance from station: NNE 74mi, 120km
Updated: Thu, 09-Apr-2020 5:45pm CDT
Light snow, Overcast
Light snow, Overcast
 Wind from NNW
Wind: NNW 14 mph , 22 km/h, Gust: 20 mph , 31 km/h
Temperature: 32°F , 0°C
Wind Chill: 22°F , -6°C
Dew Point: 30°F , -1°C
Humidity: 93%
Barometer: 29.68 inHg , 1005.1 hPa
Summary: Light Snow
Clouds: Overcast
Visibility: 3/4 mile , 1.2 km
Cloud details: Overcast 400 ft
2020/04/09 22:45 KSAW 092245Z 33012G17KT 3/4SM -SN OVC004 00/M01 A2968